Terminal Aerodrome Forecast
Issued by NWS Wichita, KS

Home | Current Version | Previous Version | Graphics & Text | Print | Product List | Glossary On
Versions: 1 2 3 4 5 6 7 8 9 10 11 12 13 14 15 16
000
FTUS43 KICT 260520
TAFICT
TAF
KICT 260520Z 2606/2706 36015KT P6SM -RA OVC015
     FM260700 36012KT P6SM BKN050
     FM261000 36010KT P6SM SCT100
     FM261500 36010KT P6SM SKC
     FM270000 20005KT P6SM SKC=

USA.gov is the U.S. government's official web portal to all federal, state and local government web resources and services.